createdAt,value
2019-05-09T00:03:10.899Z,10.78
2019-05-09T00:07:18.581Z,10.86
2019-05-09T00:11:26.837Z,10.86
2019-05-09T00:15:35.162Z,10.83
2019-05-09T00:19:43.902Z,10.88
2019-05-09T00:23:54.109Z,10.85
2019-05-09T00:28:04.089Z,10.78
2019-05-09T00:32:34.299Z,10.75
2019-05-09T00:36:43.796Z,10.83
2019-05-09T00:40:58.460Z,10.87
2019-05-09T00:45:04.149Z,10.87
2019-05-09T00:49:17.387Z,10.85
2019-05-09T00:53:25.898Z,10.85
2019-05-09T00:57:34.344Z,10.84
2019-05-09T01:01:43.693Z,10.89
2019-05-09T01:05:51.576Z,10.87
2019-05-09T01:09:59.685Z,10.88
2019-05-09T01:14:08.030Z,10.93
2019-05-09T01:18:16.244Z,10.93
2019-05-09T01:22:23.950Z,10.94
2019-05-09T01:26:33.380Z,10.93
2019-05-09T01:30:43.841Z,10.96
2019-05-09T01:34:53.059Z,10.97
2019-05-09T01:39:03.243Z,10.99
2019-05-09T01:43:10.883Z,11.03
2019-05-09T01:47:19.202Z,11.04
2019-05-09T01:51:27.404Z,11.03
2019-05-09T01:55:53.971Z,10.86
2019-05-09T02:00:04.144Z,10.95
2019-05-09T02:04:13.729Z,10.91
2019-05-09T02:08:23.665Z,10.95
2019-05-09T02:12:33.897Z,10.98
2019-05-09T02:16:59.838Z,10.97
2019-05-09T02:21:11.316Z,10.83
2019-05-09T02:25:18.154Z,10.73
2019-05-09T02:29:26.054Z,10.80
2019-05-09T02:33:36.027Z,10.93
2019-05-09T02:37:44.142Z,10.84
2019-05-09T02:42:04.428Z,10.86
2019-05-09T02:46:10.924Z,10.78
2019-05-09T02:50:19.712Z,10.70
2019-05-09T02:54:29.769Z,10.68
2019-05-09T02:58:48.479Z,10.66
2019-05-09T03:03:11.071Z,10.66
2019-05-09T03:07:21.419Z,10.71
2019-05-09T03:11:29.515Z,10.71
2019-05-09T03:15:39.381Z,10.78
2019-05-09T03:19:48.775Z,10.86
2019-05-09T03:23:59.119Z,10.85
2019-05-09T03:28:12.860Z,10.74
2019-05-09T03:32:21.163Z,10.67
2019-05-09T03:36:29.668Z,10.72
2019-05-09T03:40:38.003Z,10.76
2019-05-09T03:44:47.729Z,10.85
2019-05-09T03:48:58.249Z,10.93
2019-05-09T03:53:08.391Z,10.76
2019-05-09T03:57:24.747Z,10.88
2019-05-09T04:01:32.723Z,10.92
2019-05-09T04:05:54.463Z,10.91
2019-05-09T04:09:49.892Z,11.15
2019-05-09T04:14:02.121Z,11.11
2019-05-09T04:18:09.689Z,11.13
2019-05-09T04:22:18.270Z,11.21
2019-05-09T04:26:45.562Z,11.20
2019-05-09T04:30:54.364Z,11.38
2019-05-09T04:35:02.584Z,11.51
2019-05-09T04:39:21.510Z,11.72
2019-05-09T04:43:34.298Z,11.93
2019-05-09T04:47:39.390Z,12.10
2019-05-09T04:51:44.452Z,12.07
2019-05-09T04:55:52.142Z,12.06
2019-05-09T05:00:00.366Z,12.17
2019-05-09T05:04:08.170Z,12.29
2019-05-09T05:08:18.014Z,12.33
2019-05-09T05:12:27.598Z,12.53
2019-05-09T05:16:34.987Z,12.56
2019-05-09T05:20:43.080Z,12.66
2019-05-09T05:24:55.919Z,12.68
2019-05-09T05:29:03.633Z,12.75
2019-05-09T05:33:29.743Z,12.88
2019-05-09T05:37:38.623Z,13.07
2019-05-09T05:41:48.429Z,13.12
2019-05-09T05:46:03.674Z,13.19
2019-05-09T05:50:11.595Z,13.29
2019-05-09T05:54:23.376Z,13.15
2019-05-09T05:58:31.333Z,13.07
2019-05-09T06:02:38.895Z,13.44
2019-05-09T06:06:48.108Z,14.02
2019-05-09T06:10:57.592Z,14.16
2019-05-09T06:15:07.555Z,13.99
2019-05-09T06:19:17.857Z,14.17
2019-05-09T06:23:28.166Z,14.56
2019-05-09T06:27:37.651Z,14.67
2019-05-09T06:31:48.168Z,14.98
2019-05-09T06:35:58.947Z,15.06
2019-05-09T06:40:08.127Z,15.34
2019-05-09T06:44:31.733Z,15.23
2019-05-09T06:48:39.993Z,15.19
2019-05-09T06:52:49.574Z,15.51
2019-05-09T06:56:58.458Z,15.60
2019-05-09T07:01:18.290Z,15.65
2019-05-09T07:05:48.145Z,16.09
2019-05-09T07:09:58.576Z,16.43
2019-05-09T07:14:08.386Z,16.51
2019-05-09T07:18:18.402Z,16.26
2019-05-09T07:22:44.620Z,15.74
2019-05-09T07:26:52.339Z,16.41
2019-05-09T07:31:19.256Z,18.26
2019-05-09T07:35:27.961Z,19.31
2019-05-09T07:39:37.829Z,20.06
2019-05-09T07:43:47.786Z,20.34
2019-05-09T07:47:58.137Z,21.88
2019-05-09T07:52:09.398Z,21.90
2019-05-09T07:56:15.415Z,22.43
2019-05-09T08:00:32.775Z,21.95
2019-05-09T08:04:40.763Z,22.50
2019-05-09T08:08:49.502Z,22.29
2019-05-09T08:12:58.645Z,22.64
2019-05-09T08:17:08.588Z,23.24
2019-05-09T08:21:18.033Z,23.69
2019-05-09T08:25:27.691Z,22.84
2019-05-09T08:29:35.512Z,23.05
2019-05-09T08:33:43.670Z,23.57
2019-05-09T08:37:51.641Z,22.99
2019-05-09T08:42:00.039Z,22.54
2019-05-09T08:46:08.302Z,22.66
2019-05-09T08:50:27.944Z,22.32
2019-05-09T08:54:48.415Z,23.81
2019-05-09T08:59:01.610Z,22.95
2019-05-09T09:03:07.762Z,22.52
2019-05-09T09:07:14.993Z,22.72
2019-05-09T09:11:23.201Z,21.82
2019-05-09T09:15:55.653Z,22.46
2019-05-09T09:19:40.718Z,23.36
2019-05-09T09:23:50.776Z,24.83
2019-05-09T09:27:58.604Z,22.20
2019-05-09T09:32:08.250Z,19.87
2019-05-09T09:36:17.868Z,18.18
2019-05-09T09:40:27.795Z,17.87
2019-05-09T09:44:35.099Z,17.33
2019-05-09T09:48:44.537Z,19.11
2019-05-09T09:52:52.412Z,20.61
2019-05-09T09:57:00.887Z,22.80
2019-05-09T10:01:24.512Z,22.14
2019-05-09T10:05:32.139Z,20.01
2019-05-09T10:09:40.397Z,18.48
2019-05-09T10:13:51.754Z,19.51
2019-05-09T10:18:07.473Z,19.01
2019-05-09T10:22:24.219Z,18.71
2019-05-09T10:26:28.546Z,20.64
2019-05-09T10:30:38.282Z,21.56
2019-05-09T10:34:48.848Z,21.16
2019-05-09T10:38:58.183Z,22.40
2019-05-09T10:43:34.558Z,22.78
2019-05-09T10:47:33.261Z,23.86
2019-05-09T10:51:41.509Z,22.82
2019-05-09T10:55:49.424Z,22.49
2019-05-09T10:59:57.987Z,21.52
2019-05-09T11:04:08.131Z,20.39
2019-05-09T11:08:18.466Z,19.50
2019-05-09T11:12:27.603Z,19.46
2019-05-09T11:16:45.484Z,21.48
2019-05-09T11:20:45.911Z,22.12
2019-05-09T11:24:53.874Z,21.96
2019-05-09T11:29:02.659Z,22.30
2019-05-09T11:33:10.389Z,22.01
2019-05-09T11:37:18.080Z,22.18
2019-05-09T11:41:29.051Z,21.89
2019-05-09T11:45:35.120Z,21.46
2019-05-09T11:49:43.078Z,22.11
2019-05-09T11:53:51.226Z,22.23
2019-05-09T11:57:59.274Z,21.26
2019-05-09T12:02:08.851Z,21.23
2019-05-09T12:06:20.214Z,20.74
2019-05-09T12:10:28.705Z,20.90
2019-05-09T12:14:38.205Z,22.54
2019-05-09T12:18:48.510Z,21.92
2019-05-09T12:22:58.203Z,22.55
2019-05-09T12:27:08.539Z,21.36
2019-05-09T12:31:18.071Z,20.92
2019-05-09T12:35:26.479Z,19.91
2019-05-09T12:39:34.181Z,19.73
2019-05-09T12:43:41.824Z,20.12
2019-05-09T12:48:05.190Z,20.54
2019-05-09T12:51:59.636Z,19.87
2019-05-09T12:56:08.149Z,19.67
2019-05-09T13:00:18.686Z,19.34
2019-05-09T13:04:28.302Z,18.91
2019-05-09T13:08:38.308Z,18.90
2019-05-09T13:12:48.486Z,18.29
2019-05-09T13:17:04.774Z,18.41
2019-05-09T13:21:12.777Z,18.60
2019-05-09T13:25:20.644Z,17.79
2019-05-09T13:29:29.639Z,17.79
2019-05-09T13:33:40.948Z,17.40
2019-05-09T13:37:49.297Z,17.25
2019-05-09T13:41:58.312Z,16.94
2019-05-09T13:46:09.011Z,17.29
2019-05-09T13:50:18.617Z,17.18
2019-05-09T13:54:28.563Z,16.61
2019-05-09T13:58:38.460Z,16.25
2019-05-09T14:02:48.817Z,15.98
2019-05-09T14:07:54.781Z,16.05
2019-05-09T14:12:00.194Z,15.52
2019-05-09T14:16:19.909Z,15.90
2019-05-09T14:20:18.005Z,16.04
2019-05-09T14:24:27.879Z,16.07
2019-05-09T14:28:36.148Z,15.96
2019-05-09T14:32:43.758Z,16.00
2019-05-09T14:36:52.477Z,15.88
2019-05-09T14:41:00.173Z,15.67
2019-05-09T14:45:08.589Z,15.70
2019-05-09T14:49:17.857Z,15.67
2019-05-09T14:53:28.148Z,15.67
2019-05-09T14:57:38.187Z,15.74
2019-05-09T15:01:45.931Z,15.76
2019-05-09T15:05:53.727Z,15.54
2019-05-09T15:10:01.843Z,15.34
2019-05-09T15:14:10.241Z,15.08
2019-05-09T15:18:17.777Z,15.02
2019-05-09T15:22:28.379Z,14.95
2019-05-09T15:26:37.292Z,14.98
2019-05-09T15:30:44.874Z,15.00
2019-05-09T15:34:52.682Z,14.74
2019-05-09T15:39:00.378Z,14.60
2019-05-09T15:43:08.505Z,14.73
2019-05-09T15:47:20.950Z,14.71
2019-05-09T15:51:32.033Z,14.63
2019-05-09T15:55:38.408Z,14.55
2019-05-09T15:59:47.953Z,14.45
2019-05-09T16:03:55.551Z,14.49
2019-05-09T16:08:04.363Z,14.43
2019-05-09T16:12:12.123Z,14.33
2019-05-09T16:16:19.709Z,14.36
2019-05-09T16:20:37.189Z,14.34
2019-05-09T16:24:38.099Z,14.21
2019-05-09T16:28:48.583Z,14.32
2019-05-09T16:32:55.846Z,14.28
2019-05-09T16:37:03.432Z,14.13
2019-05-09T16:41:11.651Z,14.15
2019-05-09T16:45:20.920Z,13.96
2019-05-09T16:49:29.319Z,14.01
2019-05-09T16:53:37.655Z,13.97
2019-05-09T16:57:45.599Z,13.90
2019-05-09T17:01:53.792Z,13.86
2019-05-09T17:06:02.109Z,13.80
2019-05-09T17:10:10.054Z,13.75
2019-05-09T17:14:19.312Z,13.74
2019-05-09T17:18:28.387Z,13.75
2019-05-09T17:23:06.893Z,13.69
2019-05-09T17:27:03.574Z,13.68
2019-05-09T17:31:11.486Z,13.67
2019-05-09T17:35:19.727Z,13.71
2019-05-09T17:39:27.999Z,13.76
2019-05-09T17:43:38.223Z,13.74
2019-05-09T17:47:45.510Z,13.75
2019-05-09T17:51:53.643Z,13.74
2019-05-09T17:56:01.736Z,13.75
2019-05-09T18:00:11.450Z,13.73
2019-05-09T18:04:19.829Z,13.74
2019-05-09T18:08:28.381Z,13.69
2019-05-09T18:12:38.384Z,13.68
2019-05-09T18:16:47.832Z,13.70
2019-05-09T18:20:57.823Z,13.63
2019-05-09T18:25:08.333Z,13.67
2019-05-09T18:29:17.936Z,13.63
2019-05-09T18:33:31.826Z,13.56
2019-05-09T18:37:39.707Z,13.56
2019-05-09T18:41:48.402Z,13.67
2019-05-09T18:45:57.729Z,13.74
2019-05-09T18:50:07.795Z,13.79
2019-05-09T18:54:15.452Z,13.78
2019-05-09T18:58:23.896Z,13.67
2019-05-09T19:02:31.883Z,13.62
2019-05-09T19:06:40.537Z,13.63
2019-05-09T19:10:52.225Z,13.59
2019-05-09T19:14:59.094Z,13.58
2019-05-09T19:19:28.628Z,13.56
2019-05-09T19:23:36.325Z,13.57
2019-05-09T19:27:44.965Z,13.60
2019-05-09T19:31:53.134Z,13.64
2019-05-09T19:36:00.705Z,13.62
2019-05-09T19:40:09.320Z,13.66
2019-05-09T19:44:17.155Z,13.66
2019-05-09T19:48:25.361Z,13.69
2019-05-09T19:52:38.283Z,13.77
2019-05-09T19:56:43.218Z,13.69
2019-05-09T20:00:51.557Z,13.69
2019-05-09T20:04:59.648Z,13.69
2019-05-09T20:09:13.216Z,13.76
2019-05-09T20:13:34.522Z,13.80
2019-05-09T20:17:42.360Z,13.72
2019-05-09T20:21:50.670Z,13.66
2019-05-09T20:25:58.996Z,13.68
2019-05-09T20:30:07.021Z,13.63
2019-05-09T20:34:15.217Z,13.65
2019-05-09T20:38:23.635Z,13.69
2019-05-09T20:42:31.660Z,13.66
2019-05-09T20:46:40.178Z,13.67
2019-05-09T20:50:47.808Z,13.75
2019-05-09T20:54:56.017Z,13.70
2019-05-09T20:59:04.118Z,13.63
2019-05-09T21:03:11.926Z,13.60
2019-05-09T21:07:20.252Z,13.67
2019-05-09T21:11:29.887Z,13.66
2019-05-09T21:15:38.522Z,13.64
2019-05-09T21:19:46.551Z,13.68
2019-05-09T21:23:55.078Z,13.68
2019-05-09T21:28:03.002Z,13.64
2019-05-09T21:32:11.422Z,13.63
2019-05-09T21:36:19.535Z,13.66
2019-05-09T21:40:27.133Z,13.66
2019-05-09T21:44:34.965Z,13.70
2019-05-09T21:48:42.698Z,13.75
2019-05-09T21:52:50.481Z,13.73
2019-05-09T21:56:58.697Z,13.71
2019-05-09T22:01:08.755Z,13.74
2019-05-09T22:05:19.421Z,13.83
2019-05-09T22:09:27.762Z,13.80
2019-05-09T22:13:35.520Z,13.83
2019-05-09T22:17:44.164Z,13.78
2019-05-09T22:21:52.414Z,13.72
2019-05-09T22:26:03.171Z,13.77
2019-05-09T22:30:12.491Z,13.81
2019-05-09T22:34:20.860Z,13.76
2019-05-09T22:38:28.557Z,13.77
2019-05-09T22:42:37.015Z,13.67
2019-05-09T22:46:45.220Z,13.70
2019-05-09T22:50:52.820Z,13.69
2019-05-09T22:55:02.596Z,13.67
2019-05-09T22:59:10.551Z,13.76
2019-05-09T23:03:18.798Z,13.80
2019-05-09T23:07:27.178Z,13.61
2019-05-09T23:11:35.045Z,13.60
2019-05-09T23:15:43.270Z,13.46
2019-05-09T23:19:52.095Z,13.54
2019-05-09T23:24:05.423Z,13.49
2019-05-09T23:28:13.672Z,13.58
2019-05-09T23:32:30.637Z,13.48
2019-05-09T23:36:38.279Z,13.50
2019-05-09T23:40:46.405Z,13.66
2019-05-09T23:44:54.106Z,13.61
2019-05-09T23:49:01.740Z,13.34
2019-05-09T23:53:10.139Z,13.12
2019-05-09T23:57:35.341Z,13.01
